Goodnow, Wisconsin
Current Conditions -  °F | °C
As of 10:53 PM on Sunday 19 Oct 2014 (Local Time) from KRHI Reporting Station
Clear Clear  
Wind Chill: 39°   Ceiling: Unl
Heat Index: 42°   Visibility: 10mi
Dew Point: 40°   Wind: 5mph
Humidity: 92%   Direction: 250°WSW
Pressure: 29.76"   Gusts: NA
Location:  45.679°N, 89.6629°W
Report Text: KRHI 200353Z AUTO 25004KT 10SM CLR 06/04 A2976 RMK AO2 SLP087 T00560044
Loading
Personal Weather Stations






























Interactive Weather Map
Tropical Storm Tracking
New forecast layout! Learn more

10-Day Weather Forecast

Advertisements
Track Severe Weather on mobile